sensor_id;sensor_type;location;lat;lon;timestamp;pressure;altitude;pressure_sealevel;temperature;humidity
54900;BME280;40801;41.924;25.562;2024-02-28T00:01:50;100058.94;;;7.36;70.55
54900;BME280;40801;41.924;25.562;2024-02-28T00:04:15;100049.00;;;7.37;69.95
54900;BME280;40801;41.924;25.562;2024-02-28T00:06:41;100058.41;;;7.39;69.96
54900;BME280;40801;41.924;25.562;2024-02-28T00:09:06;100057.59;;;7.39;69.59
54900;BME280;40801;41.924;25.562;2024-02-28T00:11:31;100054.13;;;7.28;69.63
54900;BME280;40801;41.924;25.562;2024-02-28T00:13:57;100052.47;;;7.22;70.45
54900;BME280;40801;41.924;25.562;2024-02-28T00:16:25;100052.78;;;7.26;70.00
54900;BME280;40801;41.924;25.562;2024-02-28T00:18:50;100048.47;;;7.25;70.52
54900;BME280;40801;41.924;25.562;2024-02-28T00:21:16;100057.34;;;7.25;70.07
54900;BME280;40801;41.924;25.562;2024-02-28T00:23:42;100055.72;;;7.24;69.85
54900;BME280;40801;41.924;25.562;2024-02-28T00:26:07;100055.69;;;7.19;70.44
54900;BME280;40801;41.924;25.562;2024-02-28T00:28:33;100057.28;;;7.15;69.69
54900;BME280;40801;41.924;25.562;2024-02-28T00:30:58;100054.88;;;7.03;69.60
54900;BME280;40801;41.924;25.562;2024-02-28T00:33:23;100056.47;;;6.99;70.04
54900;BME280;40801;41.924;25.562;2024-02-28T00:35:49;100064.97;;;6.81;70.93
54900;BME280;40801;41.924;25.562;2024-02-28T00:38:14;100061.75;;;6.79;70.70
54900;BME280;40801;41.924;25.562;2024-02-28T00:40:40;100062.81;;;6.73;71.02
54900;BME280;40801;41.924;25.562;2024-02-28T00:43:05;100068.16;;;6.68;70.74
54900;BME280;40801;41.924;25.562;2024-02-28T00:45:30;100070.78;;;6.58;70.99
54900;BME280;40801;41.924;25.562;2024-02-28T00:47:56;100065.13;;;6.54;71.69
54900;BME280;40801;41.924;25.562;2024-02-28T00:50:21;100053.56;;;6.43;71.58
54900;BME280;40801;41.924;25.562;2024-02-28T00:52:47;100054.13;;;6.45;71.82
54900;BME280;40801;41.924;25.562;2024-02-28T00:55:12;100061.38;;;6.50;71.97
54900;BME280;40801;41.924;25.562;2024-02-28T00:57:38;100064.34;;;6.53;71.95
54900;BME280;40801;41.924;25.562;2024-02-28T01:00:03;100059.50;;;6.50;72.13
54900;BME280;40801;41.924;25.562;2024-02-28T01:02:31;100060.31;;;6.51;72.09
54900;BME280;40801;41.924;25.562;2024-02-28T01:04:56;100062.97;;;6.51;71.64
54900;BME280;40801;41.924;25.562;2024-02-28T01:07:22;100064.03;;;6.45;71.61
54900;BME280;40801;41.924;25.562;2024-02-28T01:09:47;100062.41;;;6.39;71.48
54900;BME280;40801;41.924;25.562;2024-02-28T01:12:13;100061.06;;;6.36;71.76
54900;BME280;40801;41.924;25.562;2024-02-28T01:14:38;100064.47;;;6.32;71.45
54900;BME280;40801;41.924;25.562;2024-02-28T01:17:03;100062.06;;;6.30;71.88
54900;BME280;40801;41.924;25.562;2024-02-28T01:19:29;100057.22;;;6.27;71.77
54900;BME280;40801;41.924;25.562;2024-02-28T01:21:55;100064.16;;;6.23;71.58
54900;BME280;40801;41.924;25.562;2024-02-28T01:24:20;100065.53;;;6.26;71.73
54900;BME280;40801;41.924;25.562;2024-02-28T01:26:45;100069.81;;;6.27;71.47
54900;BME280;40801;41.924;25.562;2024-02-28T01:29:11;100065.00;;;6.29;71.64
54900;BME280;40801;41.924;25.562;2024-02-28T01:31:37;100062.56;;;6.22;71.57
54900;BME280;40801;41.924;25.562;2024-02-28T01:34:02;100073.50;;;6.15;71.72
54900;BME280;40801;41.924;25.562;2024-02-28T01:36:27;100077.25;;;6.14;71.90
54900;BME280;40801;41.924;25.562;2024-02-28T01:38:53;100076.69;;;6.07;72.06
54900;BME280;40801;41.924;25.562;2024-02-28T01:41:19;100075.56;;;6.03;72.12
54900;BME280;40801;41.924;25.562;2024-02-28T01:43:45;100089.47;;;6.00;71.67
54900;BME280;40801;41.924;25.562;2024-02-28T01:46:20;100085.69;;;5.96;72.34
54900;BME280;40801;41.924;25.562;2024-02-28T01:48:47;100089.06;;;5.86;72.37
54900;BME280;40801;41.924;25.562;2024-02-28T01:51:13;100092.00;;;5.85;72.31
54900;BME280;40801;41.924;25.562;2024-02-28T01:53:38;100084.03;;;5.90;72.27
54900;BME280;40801;41.924;25.562;2024-02-28T01:56:04;100081.09;;;5.92;72.23
54900;BME280;40801;41.924;25.562;2024-02-28T01:58:30;100077.94;;;6.00;71.89
54900;BME280;40801;41.924;25.562;2024-02-28T02:00:56;100071.53;;;6.06;71.76
54900;BME280;40801;41.924;25.562;2024-02-28T02:03:21;100072.63;;;6.05;72.05
54900;BME280;40801;41.924;25.562;2024-02-28T02:05:47;100073.25;;;6.17;71.64
54900;BME280;40801;41.924;25.562;2024-02-28T02:08:13;100075.44;;;6.25;71.32
54900;BME280;40801;41.924;25.562;2024-02-28T02:10:38;100069.28;;;6.25;70.95
54900;BME280;40801;41.924;25.562;2024-02-28T02:13:05;100075.16;;;6.21;71.34
54900;BME280;40801;41.924;25.562;2024-02-28T02:15:30;100085.34;;;6.25;71.42
54900;BME280;40801;41.924;25.562;2024-02-28T02:17:56;100080.56;;;6.32;71.31
54900;BME280;40801;41.924;25.562;2024-02-28T02:20:22;100075.78;;;6.39;70.93
54900;BME280;40801;41.924;25.562;2024-02-28T02:22:48;100078.16;;;6.35;71.24
54900;BME280;40801;41.924;25.562;2024-02-28T02:25:13;100082.72;;;6.35;71.23
54900;BME280;40801;41.924;25.562;2024-02-28T02:27:39;100088.63;;;6.37;71.41
54900;BME280;40801;41.924;25.562;2024-02-28T02:30:05;100079.19;;;6.29;71.17
54900;BME280;40801;41.924;25.562;2024-02-28T02:32:30;100088.03;;;6.30;71.64
54900;BME280;40801;41.924;25.562;2024-02-28T02:34:56;100090.25;;;6.38;71.80
54900;BME280;40801;41.924;25.562;2024-02-28T02:37:21;100092.94;;;6.43;71.48
54900;BME280;40801;41.924;25.562;2024-02-28T02:39:47;100097.28;;;6.54;71.44
54900;BME280;40801;41.924;25.562;2024-02-28T02:42:12;100094.41;;;6.66;71.20
54900;BME280;40801;41.924;25.562;2024-02-28T02:44:40;100096.78;;;6.62;70.85
54900;BME280;40801;41.924;25.562;2024-02-28T02:47:05;100098.13;;;6.60;70.45
54900;BME280;40801;41.924;25.562;2024-02-28T02:49:31;100094.41;;;6.66;70.99
54900;BME280;40801;41.924;25.562;2024-02-28T02:51:56;100092.81;;;6.70;71.07
54900;BME280;40801;41.924;25.562;2024-02-28T02:54:22;100103.81;;;6.68;70.95
54900;BME280;40801;41.924;25.562;2024-02-28T02:56:47;100105.88;;;6.61;71.55
54900;BME280;40801;41.924;25.562;2024-02-28T02:59:12;100110.19;;;6.62;71.93
54900;BME280;40801;41.924;25.562;2024-02-28T03:01:38;100119.28;;;6.56;72.04
54900;BME280;40801;41.924;25.562;2024-02-28T03:04:04;100112.84;;;6.57;72.11
54900;BME280;40801;41.924;25.562;2024-02-28T03:06:29;100116.13;;;6.69;72.14
54900;BME280;40801;41.924;25.562;2024-02-28T03:08:54;100108.66;;;6.76;71.42
54900;BME280;40801;41.924;25.562;2024-02-28T03:11:20;100114.81;;;6.77;72.16
54900;BME280;40801;41.924;25.562;2024-02-28T03:13:45;100121.81;;;6.78;72.34
54900;BME280;40801;41.924;25.562;2024-02-28T03:16:11;100117.81;;;6.91;71.20
54900;BME280;40801;41.924;25.562;2024-02-28T03:18:37;100112.16;;;6.77;72.76
54900;BME280;40801;41.924;25.562;2024-02-28T03:21:03;100131.41;;;6.69;74.30
54900;BME280;40801;41.924;25.562;2024-02-28T03:23:29;100130.63;;;6.73;73.53
54900;BME280;40801;41.924;25.562;2024-02-28T03:25:54;100132.00;;;6.86;72.89
54900;BME280;40801;41.924;25.562;2024-02-28T03:28:19;100139.44;;;6.69;74.43
54900;BME280;40801;41.924;25.562;2024-02-28T03:30:45;100141.09;;;6.75;73.70
54900;BME280;40801;41.924;25.562;2024-02-28T03:33:10;100150.75;;;6.76;73.87
54900;BME280;40801;41.924;25.562;2024-02-28T03:35:36;100153.69;;;6.79;74.39
54900;BME280;40801;41.924;25.562;2024-02-28T03:38:01;100149.66;;;6.77;74.92
54900;BME280;40801;41.924;25.562;2024-02-28T03:40:26;100147.03;;;6.87;74.97
54900;BME280;40801;41.924;25.562;2024-02-28T03:42:52;100151.91;;;6.95;73.90
54900;BME280;40801;41.924;25.562;2024-02-28T03:45:17;100145.75;;;7.00;74.29
54900;BME280;40801;41.924;25.562;2024-02-28T03:47:45;100143.66;;;7.12;73.39
54900;BME280;40801;41.924;25.562;2024-02-28T03:50:10;100141.78;;;7.12;73.73
54900;BME280;40801;41.924;25.562;2024-02-28T03:52:35;100147.63;;;6.94;75.04
54900;BME280;40801;41.924;25.562;2024-02-28T03:55:01;100144.44;;;7.02;74.57
54900;BME280;40801;41.924;25.562;2024-02-28T03:57:26;100140.41;;;7.00;74.59
54900;BME280;40801;41.924;25.562;2024-02-28T03:59:52;100151.41;;;7.03;74.56
54900;BME280;40801;41.924;25.562;2024-02-28T04:02:17;100149.84;;;7.18;72.96
54900;BME280;40801;41.924;25.562;2024-02-28T04:04:42;100151.44;;;7.13;73.87
54900;BME280;40801;41.924;25.562;2024-02-28T04:07:08;100150.38;;;7.20;74.39
54900;BME280;40801;41.924;25.562;2024-02-28T04:09:33;100148.75;;;7.13;74.73
54900;BME280;40801;41.924;25.562;2024-02-28T04:11:58;100148.44;;;7.00;76.08
54900;BME280;40801;41.924;25.562;2024-02-28T04:14:24;100143.66;;;7.12;75.35
54900;BME280;40801;41.924;25.562;2024-02-28T04:16:49;100140.41;;;7.05;76.70
54900;BME280;40801;41.924;25.562;2024-02-28T04:19:15;100142.31;;;7.14;75.86
54900;BME280;40801;41.924;25.562;2024-02-28T04:21:41;100135.88;;;7.21;75.83
54900;BME280;40801;41.924;25.562;2024-02-28T04:24:07;100137.19;;;7.08;76.91
54900;BME280;40801;41.924;25.562;2024-02-28T04:26:34;100141.22;;;7.05;77.80
54900;BME280;40801;41.924;25.562;2024-02-28T04:29:01;100140.69;;;7.08;77.50
54900;BME280;40801;41.924;25.562;2024-02-28T04:31:30;100132.94;;;7.17;77.03
54900;BME280;40801;41.924;25.562;2024-02-28T04:33:55;100137.75;;;7.15;77.36
54900;BME280;40801;41.924;25.562;2024-02-28T04:36:21;100147.16;;;7.18;77.51
54900;BME280;40801;41.924;25.562;2024-02-28T04:38:46;100147.16;;;7.18;76.37
54900;BME280;40801;41.924;25.562;2024-02-28T04:41:12;100139.09;;;7.18;76.48
54900;BME280;40801;41.924;25.562;2024-02-28T04:43:37;100135.66;;;7.27;76.11
54900;BME280;40801;41.924;25.562;2024-02-28T04:46:03;100137.28;;;7.38;75.09
54900;BME280;40801;41.924;25.562;2024-02-28T04:48:28;100141.53;;;7.19;76.40
54900;BME280;40801;41.924;25.562;2024-02-28T04:50:54;100153.56;;;7.06;76.91
54900;BME280;40801;41.924;25.562;2024-02-28T04:53:19;100156.53;;;7.15;76.89
54900;BME280;40801;41.924;25.562;2024-02-28T04:55:44;100146.94;;;7.29;75.99
54900;BME280;40801;41.924;25.562;2024-02-28T04:58:10;100145.59;;;7.37;75.40
54900;BME280;40801;41.924;25.562;2024-02-28T05:00:35;100150.97;;;7.32;75.19
54900;BME280;40801;41.924;25.562;2024-02-28T05:03:00;100158.41;;;7.20;76.80
54900;BME280;40801;41.924;25.562;2024-02-28T05:05:26;100157.66;;;7.24;76.72
54900;BME280;40801;41.924;25.562;2024-02-28T05:07:51;100161.94;;;7.25;76.43
54900;BME280;40801;41.924;25.562;2024-02-28T05:10:17;100166.19;;;7.21;77.33
54900;BME280;40801;41.924;25.562;2024-02-28T05:12:42;100171.03;;;7.19;77.00
54900;BME280;40801;41.924;25.562;2024-02-28T05:15:08;100167.28;;;7.20;77.78
54900;BME280;40801;41.924;25.562;2024-02-28T05:17:33;100172.09;;;7.18;77.71
54900;BME280;40801;41.924;25.562;2024-02-28T05:19:58;100174.03;;;7.28;77.14
54900;BME280;40801;41.924;25.562;2024-02-28T05:22:24;100176.16;;;7.26;77.33
54900;BME280;40801;41.924;25.562;2024-02-28T05:24:49;100177.28;;;7.40;76.71
54900;BME280;40801;41.924;25.562;2024-02-28T05:27:15;100189.06;;;7.39;76.67
54900;BME280;40801;41.924;25.562;2024-02-28T05:29:40;100191.22;;;7.37;77.02
54900;BME280;40801;41.924;25.562;2024-02-28T05:32:07;100181.59;;;7.51;76.58
54900;BME280;40801;41.924;25.562;2024-02-28T05:34:34;100187.53;;;7.53;76.44
54900;BME280;40801;41.924;25.562;2024-02-28T05:36:59;100186.75;;;7.68;75.55
54900;BME280;40801;41.924;25.562;2024-02-28T05:39:26;100195.09;;;7.82;74.58
54900;BME280;40801;41.924;25.562;2024-02-28T05:41:54;100186.25;;;7.81;74.70
54900;BME280;40801;41.924;25.562;2024-02-28T05:44:19;100193.16;;;7.57;75.52
54900;BME280;40801;41.924;25.562;2024-02-28T05:46:45;100192.31;;;7.41;76.76
54900;BME280;40801;41.924;25.562;2024-02-28T05:49:10;100199.28;;;7.37;76.84
54900;BME280;40801;41.924;25.562;2024-02-28T05:51:36;100203.06;;;7.51;76.68
54900;BME280;40801;41.924;25.562;2024-02-28T05:54:01;100195.06;;;7.71;75.05
54900;BME280;40801;41.924;25.562;2024-02-28T05:56:27;100196.72;;;7.83;74.93
54900;BME280;40801;41.924;25.562;2024-02-28T05:58:52;100195.38;;;7.85;74.83
54900;BME280;40801;41.924;25.562;2024-02-28T06:01:18;100199.94;;;7.85;74.36
54900;BME280;40801;41.924;25.562;2024-02-28T06:03:46;100198.53;;;7.57;76.03
54900;BME280;40801;41.924;25.562;2024-02-28T06:06:12;100208.47;;;7.66;75.78
54900;BME280;40801;41.924;25.562;2024-02-28T06:08:38;100207.16;;;7.69;75.51
54900;BME280;40801;41.924;25.562;2024-02-28T06:11:05;100216.00;;;7.64;75.76
54900;BME280;40801;41.924;25.562;2024-02-28T06:13:30;100219.50;;;7.75;75.90
54900;BME280;40801;41.924;25.562;2024-02-28T06:15:56;100212.53;;;7.79;75.91
54900;BME280;40801;41.924;25.562;2024-02-28T06:18:22;100212.81;;;7.88;76.17
54900;BME280;40801;41.924;25.562;2024-02-28T06:20:49;100210.69;;;8.00;75.83
54900;BME280;40801;41.924;25.562;2024-02-28T06:23:14;100213.09;;;8.01;75.94
54900;BME280;40801;41.924;25.562;2024-02-28T06:25:40;100214.44;;;8.04;75.44
54900;BME280;40801;41.924;25.562;2024-02-28T06:28:05;100217.97;;;8.10;75.06
54900;BME280;40801;41.924;25.562;2024-02-28T06:30:32;100222.25;;;8.21;75.28
54900;BME280;40801;41.924;25.562;2024-02-28T06:33:01;100222.53;;;8.19;74.94
54900;BME280;40801;41.924;25.562;2024-02-28T06:35:27;100222.81;;;8.38;74.68
54900;BME280;40801;41.924;25.562;2024-02-28T06:37:53;100230.63;;;8.50;73.87
54900;BME280;40801;41.924;25.562;2024-02-28T06:40:19;100233.56;;;8.58;72.96
54900;BME280;40801;41.924;25.562;2024-02-28T06:42:45;100238.69;;;8.70;73.42
54900;BME280;40801;41.924;25.562;2024-02-28T06:45:10;100237.06;;;8.69;72.75
54900;BME280;40801;41.924;25.562;2024-02-28T06:47:36;100245.41;;;8.52;74.13
54900;BME280;40801;41.924;25.562;2024-02-28T06:50:03;100247.56;;;8.40;74.37
54900;BME280;40801;41.924;25.562;2024-02-28T06:52:29;100253.22;;;8.44;74.84
54900;BME280;40801;41.924;25.562;2024-02-28T06:54:54;100257.78;;;8.43;75.33
54900;BME280;40801;41.924;25.562;2024-02-28T06:57:20;100259.41;;;8.39;75.48
54900;BME280;40801;41.924;25.562;2024-02-28T06:59:45;100252.66;;;8.36;75.61
54900;BME280;40801;41.924;25.562;2024-02-28T07:02:11;100258.59;;;8.44;75.73
54900;BME280;40801;41.924;25.562;2024-02-28T07:04:38;100256.69;;;8.54;75.47
54900;BME280;40801;41.924;25.562;2024-02-28T07:07:03;100255.06;;;8.63;75.69
54900;BME280;40801;41.924;25.562;2024-02-28T07:09:30;100255.88;;;8.64;75.53
54900;BME280;40801;41.924;25.562;2024-02-28T07:11:57;100258.81;;;8.83;74.95
54900;BME280;40801;41.924;25.562;2024-02-28T07:14:23;100258.25;;;8.96;74.19
54900;BME280;40801;41.924;25.562;2024-02-28T07:16:48;100255.00;;;9.09;74.09
54900;BME280;40801;41.924;25.562;2024-02-28T07:19:14;100259.88;;;8.92;74.93
54900;BME280;40801;41.924;25.562;2024-02-28T07:21:39;100259.81;;;9.17;73.79
54900;BME280;40801;41.924;25.562;2024-02-28T07:24:05;100259.84;;;9.07;74.26
54900;BME280;40801;41.924;25.562;2024-02-28T07:26:31;100265.72;;;9.19;73.46
54900;BME280;40801;41.924;25.562;2024-02-28T07:28:57;100258.63;;;9.49;71.92
54900;BME280;40801;41.924;25.562;2024-02-28T07:31:22;100265.06;;;9.53;71.91
54900;BME280;40801;41.924;25.562;2024-02-28T07:33:48;100265.19;;;9.27;73.26
54900;BME280;40801;41.924;25.562;2024-02-28T07:36:13;100268.38;;;9.24;73.89
54900;BME280;40801;41.924;25.562;2024-02-28T07:38:41;100252.22;;;9.35;73.33
54900;BME280;40801;41.924;25.562;2024-02-28T07:41:07;100251.38;;;9.44;73.64
54900;BME280;40801;41.924;25.562;2024-02-28T07:43:33;100253.75;;;9.61;73.23
54900;BME280;40801;41.924;25.562;2024-02-28T07:46:06;100249.75;;;9.48;73.75
54900;BME280;40801;41.924;25.562;2024-02-28T07:48:31;100242.97;;;9.61;73.50
54900;BME280;40801;41.924;25.562;2024-02-28T07:50:57;100246.56;;;9.90;73.18
54900;BME280;40801;41.924;25.562;2024-02-28T07:53:22;100241.84;;;10.11;72.70
54900;BME280;40801;41.924;25.562;2024-02-28T07:55:47;100252.78;;;10.30;72.07
54900;BME280;40801;41.924;25.562;2024-02-28T07:58:14;100257.31;;;10.69;70.89
54900;BME280;40801;41.924;25.562;2024-02-28T08:00:40;100261.09;;;10.97;70.30
54900;BME280;40801;41.924;25.562;2024-02-28T08:03:06;100266.69;;;11.05;69.62
54900;BME280;40801;41.924;25.562;2024-02-28T08:05:31;100268.25;;;11.11;68.92
54900;BME280;40801;41.924;25.562;2024-02-28T08:08:00;100267.38;;;11.40;67.88
54900;BME280;40801;41.924;25.562;2024-02-28T08:10:26;100267.63;;;11.43;67.00
54900;BME280;40801;41.924;25.562;2024-02-28T08:12:51;100273.59;;;11.40;66.98
54900;BME280;40801;41.924;25.562;2024-02-28T08:15:17;100271.03;;;11.30;67.15
54900;BME280;40801;41.924;25.562;2024-02-28T08:17:42;100285.50;;;10.86;68.84
54900;BME280;40801;41.924;25.562;2024-02-28T08:20:08;100271.34;;;11.00;68.62
54900;BME280;40801;41.924;25.562;2024-02-28T08:22:33;100279.44;;;11.24;68.26
54900;BME280;40801;41.924;25.562;2024-02-28T08:24:59;100272.72;;;11.45;68.90
54900;BME280;40801;41.924;25.562;2024-02-28T08:27:24;100278.47;;;11.38;68.67
54900;BME280;40801;41.924;25.562;2024-02-28T08:29:50;100275.63;;;11.96;67.39
54900;BME280;40801;41.924;25.562;2024-02-28T08:32:17;100268.19;;;12.39;66.76
54900;BME280;40801;41.924;25.562;2024-02-28T08:34:44;100267.91;;;13.20;65.41
54900;BME280;40801;41.924;25.562;2024-02-28T08:37:11;100260.44;;;13.80;63.86
54900;BME280;40801;41.924;25.562;2024-02-28T08:39:37;100274.47;;;14.32;62.82
54900;BME280;40801;41.924;25.562;2024-02-28T08:42:03;100263.50;;;14.60;61.34
54900;BME280;40801;41.924;25.562;2024-02-28T08:44:28;100263.56;;;14.99;60.83
54900;BME280;40801;41.924;25.562;2024-02-28T08:46:53;100257.38;;;15.47;59.68
54900;BME280;40801;41.924;25.562;2024-02-28T08:49:19;100257.31;;;16.13;58.11
54900;BME280;40801;41.924;25.562;2024-02-28T08:51:44;100250.09;;;16.77;56.41
54900;BME280;40801;41.924;25.562;2024-02-28T08:54:10;100254.34;;;16.95;55.24
54900;BME280;40801;41.924;25.562;2024-02-28T08:56:35;100249.97;;;17.12;54.17
54900;BME280;40801;41.924;25.562;2024-02-28T08:59:00;100257.41;;;17.32;53.37
54900;BME280;40801;41.924;25.562;2024-02-28T09:01:26;100249.41;;;17.86;52.00
54900;BME280;40801;41.924;25.562;2024-02-28T09:03:51;100250.31;;;17.99;51.01
54900;BME280;40801;41.924;25.562;2024-02-28T09:06:16;100237.91;;;19.00;49.40
54900;BME280;40801;41.924;25.562;2024-02-28T09:08:42;100249.38;;;18.69;48.87
54900;BME280;40801;41.924;25.562;2024-02-28T09:11:07;100240.75;;;18.92;48.65
54900;BME280;40801;41.924;25.562;2024-02-28T09:13:33;100234.84;;;18.90;47.47
54900;BME280;40801;41.924;25.562;2024-02-28T09:16:00;100238.06;;;19.65;46.20
54900;BME280;40801;41.924;25.562;2024-02-28T09:18:26;100231.09;;;19.79;45.72
54900;BME280;40801;41.924;25.562;2024-02-28T09:20:51;100229.56;;;20.22;45.23
54900;BME280;40801;41.924;25.562;2024-02-28T09:23:17;100231.03;;;20.32;44.32
54900;BME280;40801;41.924;25.562;2024-02-28T09:25:42;100231.53;;;20.93;42.98
54900;BME280;40801;41.924;25.562;2024-02-28T09:28:07;100224.97;;;21.29;41.98
54900;BME280;40801;41.924;25.562;2024-02-28T09:30:33;100224.75;;;21.89;40.75
54900;BME280;40801;41.924;25.562;2024-02-28T09:32:59;100213.66;;;22.40;40.08
54900;BME280;40801;41.924;25.562;2024-02-28T09:35:24;100215.03;;;21.56;40.43
54900;BME280;40801;41.924;25.562;2024-02-28T09:37:50;100215.22;;;21.48;40.32
54900;BME280;40801;41.924;25.562;2024-02-28T09:40:16;100220.81;;;21.20;40.40
54900;BME280;40801;41.924;25.562;2024-02-28T09:42:41;100215.97;;;21.64;40.36
54900;BME280;40801;41.924;25.562;2024-02-28T09:45:10;100212.34;;;21.25;39.52
54900;BME280;40801;41.924;25.562;2024-02-28T09:47:37;100207.72;;;21.99;39.89
54900;BME280;40801;41.924;25.562;2024-02-28T09:50:02;100204.00;;;21.91;39.17
54900;BME280;40801;41.924;25.562;2024-02-28T09:52:29;100193.69;;;22.85;37.73
54900;BME280;40801;41.924;25.562;2024-02-28T09:54:54;100196.59;;;22.96;37.62
54900;BME280;40801;41.924;25.562;2024-02-28T09:57:19;100198.72;;;22.60;37.56
54900;BME280;40801;41.924;25.562;2024-02-28T09:59:49;100197.25;;;23.12;37.11
54900;BME280;40801;41.924;25.562;2024-02-28T10:02:15;100191.22;;;23.29;37.08
54900;BME280;40801;41.924;25.562;2024-02-28T10:04:42;100194.28;;;24.07;36.21
54900;BME280;40801;41.924;25.562;2024-02-28T10:07:11;100174.31;;;24.54;33.15
54900;BME280;40801;41.924;25.562;2024-02-28T10:09:43;100180.81;;;24.32;35.26
54900;BME280;40801;41.924;25.562;2024-02-28T10:12:09;100163.63;;;24.93;34.57
54900;BME280;40801;41.924;25.562;2024-02-28T10:14:34;100172.13;;;24.70;34.47
54900;BME280;40801;41.924;25.562;2024-02-28T10:17:00;100165.78;;;24.66;33.99
54900;BME280;40801;41.924;25.562;2024-02-28T10:19:25;100156.03;;;25.31;33.42
54900;BME280;40801;41.924;25.562;2024-02-28T10:21:52;100145.78;;;26.15;32.55
54900;BME280;40801;41.924;25.562;2024-02-28T10:24:17;100141.38;;;26.00;32.53
54900;BME280;40801;41.924;25.562;2024-02-28T10:26:46;100136.00;;;26.74;30.90
54900;BME280;40801;41.924;25.562;2024-02-28T10:29:24;100131.25;;;26.89;30.35
54900;BME280;40801;41.924;25.562;2024-02-28T10:31:51;100125.31;;;26.34;31.28
54900;BME280;40801;41.924;25.562;2024-02-28T10:34:17;100127.69;;;26.67;31.40
54900;BME280;40801;41.924;25.562;2024-02-28T10:36:43;100120.59;;;26.66;31.00
54900;BME280;40801;41.924;25.562;2024-02-28T10:39:10;100113.06;;;26.95;30.83
54900;BME280;40801;41.924;25.562;2024-02-28T10:41:37;100120.97;;;26.93;30.50
54900;BME280;40801;41.924;25.562;2024-02-28T10:44:03;100112.25;;;26.84;30.79
54900;BME280;40801;41.924;25.562;2024-02-28T10:46:29;100117.38;;;27.28;29.98
54900;BME280;40801;41.924;25.562;2024-02-28T10:48:55;100115.00;;;28.18;28.81
54900;BME280;40801;41.924;25.562;2024-02-28T10:51:23;100109.31;;;27.76;28.37
54900;BME280;40801;41.924;25.562;2024-02-28T10:53:59;100094.34;;;27.42;29.31
54900;BME280;40801;41.924;25.562;2024-02-28T10:56:28;100089.69;;;28.12;28.59
54900;BME280;40801;41.924;25.562;2024-02-28T10:58:59;100091.69;;;28.04;27.73
54900;BME280;40801;41.924;25.562;2024-02-28T11:01:25;100083.63;;;27.55;29.26
54900;BME280;40801;41.924;25.562;2024-02-28T11:03:51;100076.78;;;27.84;28.89
54900;BME280;40801;41.924;25.562;2024-02-28T11:06:18;100079.66;;;28.32;28.45
54900;BME280;40801;41.924;25.562;2024-02-28T11:08:47;100066.28;;;28.68;27.88
54900;BME280;40801;41.924;25.562;2024-02-28T11:11:19;100061.06;;;29.15;27.70
54900;BME280;40801;41.924;25.562;2024-02-28T11:13:54;100054.63;;;27.81;28.20
54900;BME280;40801;41.924;25.562;2024-02-28T11:16:33;100047.81;;;28.96;27.14
54900;BME280;40801;41.924;25.562;2024-02-28T11:18:59;100040.81;;;30.10;26.82
54900;BME280;40801;41.924;25.562;2024-02-28T11:21:28;100030.94;;;30.29;25.87
54900;BME280;40801;41.924;25.562;2024-02-28T11:23:57;100027.44;;;30.25;25.41
54900;BME280;40801;41.924;25.562;2024-02-28T11:26:24;100021.31;;;30.33;25.70
54900;BME280;40801;41.924;25.562;2024-02-28T11:28:49;100021.44;;;30.26;25.85
54900;BME280;40801;41.924;25.562;2024-02-28T11:31:15;100023.09;;;30.24;25.71
54900;BME280;40801;41.924;25.562;2024-02-28T11:33:41;100013.09;;;30.73;25.16
54900;BME280;40801;41.924;25.562;2024-02-28T11:36:06;100016.47;;;30.84;25.45
54900;BME280;40801;41.924;25.562;2024-02-28T11:38:34;100012.56;;;31.21;24.99
54900;BME280;40801;41.924;25.562;2024-02-28T11:41:03;100002.47;;;31.07;24.69
54900;BME280;40801;41.924;25.562;2024-02-28T11:43:34;100005.53;;;30.93;24.92
54900;BME280;40801;41.924;25.562;2024-02-28T11:46:08;100003.38;;;30.61;24.30
54900;BME280;40801;41.924;25.562;2024-02-28T11:48:35;99997.81;;;30.38;25.91
54900;BME280;40801;41.924;25.562;2024-02-28T11:51:00;99993.13;;;30.98;25.11
54900;BME280;40801;41.924;25.562;2024-02-28T11:53:25;99999.53;;;30.51;25.94
54900;BME280;40801;41.924;25.562;2024-02-28T11:55:54;99994.59;;;30.39;25.88
54900;BME280;40801;41.924;25.562;2024-02-28T11:58:21;99982.06;;;30.51;25.88
54900;BME280;40801;41.924;25.562;2024-02-28T12:00:50;99984.03;;;30.07;25.93
54900;BME280;40801;41.924;25.562;2024-02-28T12:03:26;99987.34;;;29.95;25.99
54900;BME280;40801;41.924;25.562;2024-02-28T12:05:52;99981.22;;;29.53;26.70
54900;BME280;40801;41.924;25.562;2024-02-28T12:08:18;99969.81;;;29.44;27.38
54900;BME280;40801;41.924;25.562;2024-02-28T12:10:45;99979.06;;;29.65;26.58
54900;BME280;40801;41.924;25.562;2024-02-28T12:13:10;99966.81;;;29.32;26.88
54900;BME280;40801;41.924;25.562;2024-02-28T12:15:38;99963.81;;;30.00;26.45
54900;BME280;40801;41.924;25.562;2024-02-28T12:18:09;99958.72;;;30.21;25.82
54900;BME280;40801;41.924;25.562;2024-02-28T12:20:35;99963.00;;;29.76;26.57
54900;BME280;40801;41.924;25.562;2024-02-28T12:23:03;99957.88;;;29.74;27.00
54900;BME280;40801;41.924;25.562;2024-02-28T12:25:28;99956.00;;;29.68;27.14
54900;BME280;40801;41.924;25.562;2024-02-28T12:27:54;99951.34;;;29.61;27.15
54900;BME280;40801;41.924;25.562;2024-02-28T12:30:19;99944.47;;;29.92;26.90
54900;BME280;40801;41.924;25.562;2024-02-28T12:32:46;99943.75;;;30.35;26.29
54900;BME280;40801;41.924;25.562;2024-02-28T12:35:11;99940.50;;;31.23;25.95
54900;BME280;40801;41.924;25.562;2024-02-28T12:37:37;99941.97;;;32.29;24.60
54900;BME280;40801;41.924;25.562;2024-02-28T12:40:04;99928.84;;;32.71;23.89
54900;BME280;40801;41.924;25.562;2024-02-28T12:42:31;99923.75;;;32.82;23.55